sensor_id;sensor_type;location;lat;lon;timestamp;temperature;humidity
40816;DHT22;26535;48.788;9.214;2022-12-18T00:00:32;-7.50;99.90
40816;DHT22;26535;48.788;9.214;2022-12-18T06:01:34;-8.70;99.90
40816;DHT22;26535;48.788;9.214;2022-12-18T06:07:07;-8.80;99.90
40816;DHT22;26535;48.788;9.214;2022-12-18T06:09:35;-8.90;99.90
40816;DHT22;26535;48.788;9.214;2022-12-18T06:13:04;-8.90;99.90
40816;DHT22;26535;48.788;9.214;2022-12-18T06:16:42;-8.90;99.90
40816;DHT22;26535;48.788;9.214;2022-12-18T06:19:17;-9.00;99.90
40816;DHT22;26535;48.788;9.214;2022-12-18T06:22:07;-9.10;99.90
40816;DHT22;26535;48.788;9.214;2022-12-18T06:24:45;-9.20;99.90
40816;DHT22;26535;48.788;9.214;2022-12-18T06:30:13;-9.20;99.90
40816;DHT22;26535;48.788;9.214;2022-12-18T06:32:56;-9.10;99.90
40816;DHT22;26535;48.788;9.214;2022-12-18T06:35:44;-9.30;99.90
40816;DHT22;26535;48.788;9.214;2022-12-18T06:52:40;-9.50;99.90
40816;DHT22;26535;48.788;9.214;2022-12-18T06:58:50;-9.20;99.90
40816;DHT22;26535;48.788;9.214;2022-12-18T07:01:52;-9.20;99.90
40816;DHT22;26535;48.788;9.214;2022-12-18T07:04:54;-9.30;99.90
40816;DHT22;26535;48.788;9.214;2022-12-18T07:10:52;-9.20;99.90
40816;DHT22;26535;48.788;9.214;2022-12-18T07:14:05;-9.20;99.90
40816;DHT22;26535;48.788;9.214;2022-12-18T07:16:55;-9.20;99.90
40816;DHT22;26535;48.788;9.214;2022-12-18T07:22:02;-9.20;99.90
40816;DHT22;26535;48.788;9.214;2022-12-18T07:29:20;-9.00;99.90
40816;DHT22;26535;48.788;9.214;2022-12-18T07:31:49;-9.10;99.90
40816;DHT22;26535;48.788;9.214;2022-12-18T07:34:15;-9.20;99.90
40816;DHT22;26535;48.788;9.214;2022-12-18T07:36:41;-9.10;99.90
40816;DHT22;26535;48.788;9.214;2022-12-18T07:39:35;-9.00;99.90
40816;DHT22;26535;48.788;9.214;2022-12-18T07:42:01;-8.90;99.90
40816;DHT22;26535;48.788;9.214;2022-12-18T07:45:13;-9.10;99.90
40816;DHT22;26535;48.788;9.214;2022-12-18T07:47:45;-9.10;99.90
40816;DHT22;26535;48.788;9.214;2022-12-18T07:50:18;-9.10;99.90
40816;DHT22;26535;48.788;9.214;2022-12-18T07:52:44;-9.10;99.90
40816;DHT22;26535;48.788;9.214;2022-12-18T07:58:03;-9.10;99.90
40816;DHT22;26535;48.788;9.214;2022-12-18T08:01:08;-9.10;99.90
40816;DHT22;26535;48.788;9.214;2022-12-18T08:06:27;-8.90;99.90
40816;DHT22;26535;48.788;9.214;2022-12-18T08:17:19;-9.00;99.90
40816;DHT22;26535;48.788;9.214;2022-12-18T08:23:35;-8.90;99.90
40816;DHT22;26535;48.788;9.214;2022-12-18T08:26:42;-8.90;99.90
40816;DHT22;26535;48.788;9.214;2022-12-18T08:29:31;-8.90;99.90
40816;DHT22;26535;48.788;9.214;2022-12-18T08:35:36;-8.60;99.90
40816;DHT22;26535;48.788;9.214;2022-12-18T08:41:39;-8.40;99.90
40816;DHT22;26535;48.788;9.214;2022-12-18T08:44:48;-8.20;99.90
40816;DHT22;26535;48.788;9.214;2022-12-18T08:47:14;-8.20;99.90
40816;DHT22;26535;48.788;9.214;2022-12-18T08:49:40;-8.10;99.90
40816;DHT22;26535;48.788;9.214;2022-12-18T08:52:54;-8.00;99.90
40816;DHT22;26535;48.788;9.214;2022-12-18T08:55:23;-7.90;99.90
40816;DHT22;26535;48.788;9.214;2022-12-18T08:58:33;-7.80;99.90
40816;DHT22;26535;48.788;9.214;2022-12-18T09:01:15;-7.80;99.90
40816;DHT22;26535;48.788;9.214;2022-12-18T09:03:50;-7.80;99.90
40816;DHT22;26535;48.788;9.214;2022-12-18T09:06:45;-7.80;99.90
40816;DHT22;26535;48.788;9.214;2022-12-18T09:09:20;-7.60;99.90
40816;DHT22;26535;48.788;9.214;2022-12-18T09:11:55;-7.60;99.90
40816;DHT22;26535;48.788;9.214;2022-12-18T09:17:37;-7.50;99.90
40816;DHT22;26535;48.788;9.214;2022-12-18T09:21:07;-7.50;99.90
40816;DHT22;26535;48.788;9.214;2022-12-18T09:24:35;-7.30;99.90
40816;DHT22;26535;48.788;9.214;2022-12-18T09:27:10;-7.30;99.90
40816;DHT22;26535;48.788;9.214;2022-12-18T09:32:34;-7.00;99.90
40816;DHT22;26535;48.788;9.214;2022-12-18T09:35:01;-6.90;99.90
40816;DHT22;26535;48.788;9.214;2022-12-18T09:37:36;-6.80;99.90
40816;DHT22;26535;48.788;9.214;2022-12-18T09:40:19;-6.70;99.90
40816;DHT22;26535;48.788;9.214;2022-12-18T09:53:06;-6.00;99.90
40816;DHT22;26535;48.788;9.214;2022-12-18T09:56:01;-5.90;99.90
40816;DHT22;26535;48.788;9.214;2022-12-18T09:59:06;-5.80;99.90
40816;DHT22;26535;48.788;9.214;2022-12-18T10:01:46;-5.60;99.90
40816;DHT22;26535;48.788;9.214;2022-12-18T10:04:30;-5.50;99.90
40816;DHT22;26535;48.788;9.214;2022-12-18T10:07:49;-5.40;99.90
40816;DHT22;26535;48.788;9.214;2022-12-18T10:10:53;-5.10;99.90
40816;DHT22;26535;48.788;9.214;2022-12-18T10:19:12;-4.70;99.90
40816;DHT22;26535;48.788;9.214;2022-12-18T10:28:48;-4.30;99.90
40816;DHT22;26535;48.788;9.214;2022-12-18T10:30:46;-4.30;99.90
40816;DHT22;26535;48.788;9.214;2022-12-18T10:33:24;-4.00;99.90
40816;DHT22;26535;48.788;9.214;2022-12-18T10:36:03;-3.70;99.90
40816;DHT22;26535;48.788;9.214;2022-12-18T10:38:31;-3.50;99.90
40816;DHT22;26535;48.788;9.214;2022-12-18T10:41:00;-3.30;99.90
40816;DHT22;26535;48.788;9.214;2022-12-18T10:43:27;-3.10;99.90
40816;DHT22;26535;48.788;9.214;2022-12-18T10:48:40;-2.50;99.90
40816;DHT22;26535;48.788;9.214;2022-12-18T10:51:07;-2.20;99.90
40816;DHT22;26535;48.788;9.214;2022-12-18T10:53:35;-2.00;99.90
40816;DHT22;26535;48.788;9.214;2022-12-18T10:56:04;-1.90;99.90
40816;DHT22;26535;48.788;9.214;2022-12-18T10:58:33;-1.60;99.90
40816;DHT22;26535;48.788;9.214;2022-12-18T11:01:16;-1.20;99.90
40816;DHT22;26535;48.788;9.214;2022-12-18T11:03:45;-0.90;99.90
40816;DHT22;26535;48.788;9.214;2022-12-18T11:06:19;-0.70;99.90
40816;DHT22;26535;48.788;9.214;2022-12-18T11:09:04;-0.20;99.90
40816;DHT22;26535;48.788;9.214;2022-12-18T11:11:32;0.30;97.80
40816;DHT22;26535;48.788;9.214;2022-12-18T11:16:25;0.80;96.50
40816;DHT22;26535;48.788;9.214;2022-12-18T11:18:51;1.20;95.80
40816;DHT22;26535;48.788;9.214;2022-12-18T11:21:17;1.60;95.10
40816;DHT22;26535;48.788;9.214;2022-12-18T11:23:53;2.10;94.50
40816;DHT22;26535;48.788;9.214;2022-12-18T11:26:34;2.40;93.40
40816;DHT22;26535;48.788;9.214;2022-12-18T11:29:17;2.70;93.30
40816;DHT22;26535;48.788;9.214;2022-12-18T11:31:46;2.90;92.20
40816;DHT22;26535;48.788;9.214;2022-12-18T11:34:30;3.00;92.60
40816;DHT22;26535;48.788;9.214;2022-12-18T11:37:08;3.10;92.40
40816;DHT22;26535;48.788;9.214;2022-12-18T11:39:40;3.00;92.50
40816;DHT22;26535;48.788;9.214;2022-12-18T11:42:22;3.30;92.30
40816;DHT22;26535;48.788;9.214;2022-12-18T11:47:57;3.90;91.80
40816;DHT22;26535;48.788;9.214;2022-12-18T11:50:51;3.80;91.70
40816;DHT22;26535;48.788;9.214;2022-12-18T11:53:17;4.30;90.80
40816;DHT22;26535;48.788;9.214;2022-12-18T11:58:25;4.60;90.70
40816;DHT22;26535;48.788;9.214;2022-12-18T12:09:23;5.10;90.40
40816;DHT22;26535;48.788;9.214;2022-12-18T12:12:16;5.30;89.30
40816;DHT22;26535;48.788;9.214;2022-12-18T12:17:54;4.70;90.70
40816;DHT22;26535;48.788;9.214;2022-12-18T12:26:12;4.20;91.60
40816;DHT22;26535;48.788;9.214;2022-12-18T12:34:30;4.20;90.80
40816;DHT22;26535;48.788;9.214;2022-12-18T12:39:35;3.80;91.50
40816;DHT22;26535;48.788;9.214;2022-12-18T12:42:11;3.20;92.50
40816;DHT22;26535;48.788;9.214;2022-12-18T12:44:58;3.10;92.50
40816;DHT22;26535;48.788;9.214;2022-12-18T12:47:37;3.10;92.70
40816;DHT22;26535;48.788;9.214;2022-12-18T12:50:16;3.00;93.30
40816;DHT22;26535;48.788;9.214;2022-12-18T12:52:49;3.00;93.20
40816;DHT22;26535;48.788;9.214;2022-12-18T12:55:28;3.10;93.10
40816;DHT22;26535;48.788;9.214;2022-12-18T12:58:17;2.90;93.00
40816;DHT22;26535;48.788;9.214;2022-12-18T13:01:04;2.80;93.10
40816;DHT22;26535;48.788;9.214;2022-12-18T13:03:50;3.10;93.60
40816;DHT22;26535;48.788;9.214;2022-12-18T13:06:23;3.50;93.00
40816;DHT22;26535;48.788;9.214;2022-12-18T13:08:56;3.70;92.80
40816;DHT22;26535;48.788;9.214;2022-12-18T13:14:35;3.50;92.50
40816;DHT22;26535;48.788;9.214;2022-12-18T13:17:15;3.40;92.50
40816;DHT22;26535;48.788;9.214;2022-12-18T13:19:42;3.30;92.90
40816;DHT22;26535;48.788;9.214;2022-12-18T13:22:28;3.20;92.80
40816;DHT22;26535;48.788;9.214;2022-12-18T13:24:59;3.20;92.90
40816;DHT22;26535;48.788;9.214;2022-12-18T13:35:42;3.10;93.60
40816;DHT22;26535;48.788;9.214;2022-12-18T13:43:45;2.90;93.50
40816;DHT22;26535;48.788;9.214;2022-12-18T13:49:02;2.70;94.00
40816;DHT22;26535;48.788;9.214;2022-12-18T13:51:31;2.50;94.20
40816;DHT22;26535;48.788;9.214;2022-12-18T13:54:02;2.40;94.70
40816;DHT22;26535;48.788;9.214;2022-12-18T13:56:33;2.30;94.80
40816;DHT22;26535;48.788;9.214;2022-12-18T13:59:13;2.40;94.80
40816;DHT22;26535;48.788;9.214;2022-12-18T14:01:50;2.40;94.90
40816;DHT22;26535;48.788;9.214;2022-12-18T14:04:28;2.20;95.00
40816;DHT22;26535;48.788;9.214;2022-12-18T14:07:07;1.90;95.90
40816;DHT22;26535;48.788;9.214;2022-12-18T14:09:39;1.70;95.90
40816;DHT22;26535;48.788;9.214;2022-12-18T14:12:11;1.50;96.40
40816;DHT22;26535;48.788;9.214;2022-12-18T14:14:58;1.60;96.60
40816;DHT22;26535;48.788;9.214;2022-12-18T14:17:25;1.50;96.90
40816;DHT22;26535;48.788;9.214;2022-12-18T14:19:51;1.50;96.90
40816;DHT22;26535;48.788;9.214;2022-12-18T14:22:19;1.30;97.40
40816;DHT22;26535;48.788;9.214;2022-12-18T14:25:04;1.30;97.50
40816;DHT22;26535;48.788;9.214;2022-12-18T14:27:30;1.30;98.00
40816;DHT22;26535;48.788;9.214;2022-12-18T14:29:56;1.20;97.90
40816;DHT22;26535;48.788;9.214;2022-12-18T14:32:22;1.10;98.10
40816;DHT22;26535;48.788;9.214;2022-12-18T14:34:52;0.90;98.60
40816;DHT22;26535;48.788;9.214;2022-12-18T14:37:24;0.90;98.90
40816;DHT22;26535;48.788;9.214;2022-12-18T14:39:58;0.70;99.20
40816;DHT22;26535;48.788;9.214;2022-12-18T14:42:33;0.60;99.40
40816;DHT22;26535;48.788;9.214;2022-12-18T14:48:39;0.20;99.90
40816;DHT22;26535;48.788;9.214;2022-12-18T14:51:07;0.00;99.90
40816;DHT22;26535;48.788;9.214;2022-12-18T14:53:42;-0.10;99.90
40816;DHT22;26535;48.788;9.214;2022-12-18T14:56:30;-0.30;99.90
40816;DHT22;26535;48.788;9.214;2022-12-18T14:58:59;-0.50;99.90
40816;DHT22;26535;48.788;9.214;2022-12-18T15:01:29;-0.60;99.90
40816;DHT22;26535;48.788;9.214;2022-12-18T15:04:33;-0.80;99.90
40816;DHT22;26535;48.788;9.214;2022-12-18T15:07:20;-1.00;99.90
40816;DHT22;26535;48.788;9.214;2022-12-18T15:23:22;-1.60;99.90
40816;DHT22;26535;48.788;9.214;2022-12-18T15:26:17;-1.70;99.90
40816;DHT22;26535;48.788;9.214;2022-12-18T15:28:51;-1.70;99.90
40816;DHT22;26535;48.788;9.214;2022-12-18T15:31:34;-1.70;99.90
40816;DHT22;26535;48.788;9.214;2022-12-18T15:34:19;-1.80;99.90
40816;DHT22;26535;48.788;9.214;2022-12-18T15:36:47;-1.90;99.90
40816;DHT22;26535;48.788;9.214;2022-12-18T15:39:13;-1.90;99.90
40816;DHT22;26535;48.788;9.214;2022-12-18T15:41:39;-2.00;99.90
40816;DHT22;26535;48.788;9.214;2022-12-18T15:44:22;-2.00;99.90
40816;DHT22;26535;48.788;9.214;2022-12-18T15:46:48;-2.10;99.90
40816;DHT22;26535;48.788;9.214;2022-12-18T15:49:14;-2.10;99.90
40816;DHT22;26535;48.788;9.214;2022-12-18T15:51:43;-2.20;99.90
40816;DHT22;26535;48.788;9.214;2022-12-18T15:54:11;-2.30;99.90
40816;DHT22;26535;48.788;9.214;2022-12-18T15:56:41;-2.30;99.90
40816;DHT22;26535;48.788;9.214;2022-12-18T15:59:26;-2.30;99.90
40816;DHT22;26535;48.788;9.214;2022-12-18T16:01:52;-2.30;99.90
40816;DHT22;26535;48.788;9.214;2022-12-18T16:04:22;-2.30;99.90
40816;DHT22;26535;48.788;9.214;2022-12-18T16:06:49;-2.30;99.90
40816;DHT22;26535;48.788;9.214;2022-12-18T16:09:17;-2.30;99.90
40816;DHT22;26535;48.788;9.214;2022-12-18T16:11:43;-2.40;99.90
40816;DHT22;26535;48.788;9.214;2022-12-18T16:14:20;-2.40;99.90
40816;DHT22;26535;48.788;9.214;2022-12-18T16:16:51;-2.40;99.90
40816;DHT22;26535;48.788;9.214;2022-12-18T16:19:17;-2.40;99.90
40816;DHT22;26535;48.788;9.214;2022-12-18T16:21:47;-2.40;99.90
40816;DHT22;26535;48.788;9.214;2022-12-18T16:24:22;-2.40;99.90
40816;DHT22;26535;48.788;9.214;2022-12-18T16:26:49;-2.40;99.90
40816;DHT22;26535;48.788;9.214;2022-12-18T16:29:17;-2.40;99.90
40816;DHT22;26535;48.788;9.214;2022-12-18T16:31:44;-2.40;99.90
40816;DHT22;26535;48.788;9.214;2022-12-18T16:34:22;-2.30;99.90
40816;DHT22;26535;48.788;9.214;2022-12-18T16:36:51;-2.30;99.90
40816;DHT22;26535;48.788;9.214;2022-12-18T16:39:21;-2.30;99.90
40816;DHT22;26535;48.788;9.214;2022-12-18T16:41:47;-2.30;99.90
40816;DHT22;26535;48.788;9.214;2022-12-18T16:44:13;-2.40;99.90
40816;DHT22;26535;48.788;9.214;2022-12-18T16:46:45;-2.30;99.90
40816;DHT22;26535;48.788;9.214;2022-12-18T16:49:13;-2.30;99.90
40816;DHT22;26535;48.788;9.214;2022-12-18T16:51:39;-2.30;99.90
40816;DHT22;26535;48.788;9.214;2022-12-18T16:54:04;-2.30;99.90
40816;DHT22;26535;48.788;9.214;2022-12-18T16:56:30;-2.30;99.90
40816;DHT22;26535;48.788;9.214;2022-12-18T16:58:58;-2.30;99.90
40816;DHT22;26535;48.788;9.214;2022-12-18T17:01:25;-2.30;99.90
40816;DHT22;26535;48.788;9.214;2022-12-18T17:03:55;-2.30;99.90
40816;DHT22;26535;48.788;9.214;2022-12-18T17:06:22;-2.30;99.90
40816;DHT22;26535;48.788;9.214;2022-12-18T17:08:54;-2.30;99.90
40816;DHT22;26535;48.788;9.214;2022-12-18T17:11:21;-2.30;99.90
40816;DHT22;26535;48.788;9.214;2022-12-18T17:13:49;-2.30;99.90
40816;DHT22;26535;48.788;9.214;2022-12-18T17:16:15;-2.30;99.90
40816;DHT22;26535;48.788;9.214;2022-12-18T17:18:42;-2.30;99.90
40816;DHT22;26535;48.788;9.214;2022-12-18T17:21:16;-2.20;99.90
40816;DHT22;26535;48.788;9.214;2022-12-18T17:23:43;-2.20;99.90
40816;DHT22;26535;48.788;9.214;2022-12-18T17:26:11;-2.30;99.90
40816;DHT22;26535;48.788;9.214;2022-12-18T17:28:41;-2.30;99.90
40816;DHT22;26535;48.788;9.214;2022-12-18T17:31:12;-2.30;99.90
40816;DHT22;26535;48.788;9.214;2022-12-18T17:33:39;-2.30;99.90
40816;DHT22;26535;48.788;9.214;2022-12-18T17:36:06;-2.20;99.90
40816;DHT22;26535;48.788;9.214;2022-12-18T17:38:32;-2.20;99.90
40816;DHT22;26535;48.788;9.214;2022-12-18T17:41:02;-2.30;99.90
40816;DHT22;26535;48.788;9.214;2022-12-18T17:43:28;-2.20;99.90
40816;DHT22;26535;48.788;9.214;2022-12-18T17:46:01;-2.20;99.90
40816;DHT22;26535;48.788;9.214;2022-12-18T17:48:28;-2.20;99.90
40816;DHT22;26535;48.788;9.214;2022-12-18T17:50:54;-2.20;99.90
40816;DHT22;26535;48.788;9.214;2022-12-18T17:53:19;-2.20;99.90
40816;DHT22;26535;48.788;9.214;2022-12-18T17:55:55;-2.30;99.90
40816;DHT22;26535;48.788;9.214;2022-12-18T17:58:21;-2.30;99.90
40816;DHT22;26535;48.788;9.214;2022-12-18T18:00:47;-2.20;99.90
40816;DHT22;26535;48.788;9.214;2022-12-18T18:03:13;-2.10;99.90
40816;DHT22;26535;48.788;9.214;2022-12-18T18:05:39;-2.20;99.90
40816;DHT22;26535;48.788;9.214;2022-12-18T18:08:05;-2.20;99.90
40816;DHT22;26535;48.788;9.214;2022-12-18T18:10:38;-2.20;99.90
40816;DHT22;26535;48.788;9.214;2022-12-18T18:13:21;-2.20;99.90
40816;DHT22;26535;48.788;9.214;2022-12-18T18:16:12;-2.20;99.90
40816;DHT22;26535;48.788;9.214;2022-12-18T18:18:38;-2.20;99.90
40816;DHT22;26535;48.788;9.214;2022-12-18T18:21:05;-2.20;99.90
40816;DHT22;26535;48.788;9.214;2022-12-18T18:23:32;-2.20;99.90
40816;DHT22;26535;48.788;9.214;2022-12-18T18:26:05;-2.20;99.90
40816;DHT22;26535;48.788;9.214;2022-12-18T18:28:35;-2.20;99.90
40816;DHT22;26535;48.788;9.214;2022-12-18T18:31:05;-2.10;99.90
40816;DHT22;26535;48.788;9.214;2022-12-18T18:33:32;-2.10;99.90
40816;DHT22;26535;48.788;9.214;2022-12-18T18:36:01;-2.10;99.90
40816;DHT22;26535;48.788;9.214;2022-12-18T18:38:27;-2.20;99.90
40816;DHT22;26535;48.788;9.214;2022-12-18T18:41:00;-2.20;99.90
40816;DHT22;26535;48.788;9.214;2022-12-18T18:43:33;-2.20;99.90
40816;DHT22;26535;48.788;9.214;2022-12-18T18:46:00;-2.20;99.90
40816;DHT22;26535;48.788;9.214;2022-12-18T18:48:33;-2.20;99.90
40816;DHT22;26535;48.788;9.214;2022-12-18T18:51:05;-2.20;99.90
40816;DHT22;26535;48.788;9.214;2022-12-18T18:53:36;-2.20;99.90
40816;DHT22;26535;48.788;9.214;2022-12-18T18:56:03;-2.20;99.90
40816;DHT22;26535;48.788;9.214;2022-12-18T18:58:29;-2.10;99.90
40816;DHT22;26535;48.788;9.214;2022-12-18T19:01:00;-2.10;99.90
40816;DHT22;26535;48.788;9.214;2022-12-18T19:03:27;-2.00;99.90
40816;DHT22;26535;48.788;9.214;2022-12-18T19:05:54;-2.00;99.90
40816;DHT22;26535;48.788;9.214;2022-12-18T19:08:29;-2.00;99.90
40816;DHT22;26535;48.788;9.214;2022-12-18T19:10:58;-2.00;99.90
40816;DHT22;26535;48.788;9.214;2022-12-18T19:13:27;-2.00;99.90
40816;DHT22;26535;48.788;9.214;2022-12-18T19:16:28;-2.00;99.90
40816;DHT22;26535;48.788;9.214;2022-12-18T19:18:47;-2.10;99.90
40816;DHT22;26535;48.788;9.214;2022-12-18T19:21:12;-2.10;99.90
40816;DHT22;26535;48.788;9.214;2022-12-18T19:23:38;-2.20;99.90
40816;DHT22;26535;48.788;9.214;2022-12-18T19:26:08;-2.10;99.90
40816;DHT22;26535;48.788;9.214;2022-12-18T19:28:34;-2.00;99.90
40816;DHT22;26535;48.788;9.214;2022-12-18T19:31:06;-1.90;99.90
40816;DHT22;26535;48.788;9.214;2022-12-18T19:33:37;-1.90;99.90
40816;DHT22;26535;48.788;9.214;2022-12-18T19:38:37;-2.00;99.90
40816;DHT22;26535;48.788;9.214;2022-12-18T19:41:07;-2.10;99.90
40816;DHT22;26535;48.788;9.214;2022-12-18T19:43:35;-2.20;99.90
40816;DHT22;26535;48.788;9.214;2022-12-18T19:46:06;-2.10;99.90
40816;DHT22;26535;48.788;9.214;2022-12-18T19:48:35;-2.10;99.90
40816;DHT22;26535;48.788;9.214;2022-12-18T19:51:08;-2.10;99.90
40816;DHT22;26535;48.788;9.214;2022-12-18T19:53:35;-2.10;99.90
40816;DHT22;26535;48.788;9.214;2022-12-18T19:56:10;-2.10;99.90
40816;DHT22;26535;48.788;9.214;2022-12-18T19:58:37;-2.00;99.90
40816;DHT22;26535;48.788;9.214;2022-12-18T20:01:03;-2.00;99.90
40816;DHT22;26535;48.788;9.214;2022-12-18T20:03:30;-2.00;99.90
40816;DHT22;26535;48.788;9.214;2022-12-18T20:08:38;-1.90;99.90
40816;DHT22;26535;48.788;9.214;2022-12-18T20:11:04;-1.90;99.90
40816;DHT22;26535;48.788;9.214;2022-12-18T20:13:30;-1.90;99.90
40816;DHT22;26535;48.788;9.214;2022-12-18T20:15:56;-1.90;99.90
40816;DHT22;26535;48.788;9.214;2022-12-18T20:18:22;-1.90;99.90
40816;DHT22;26535;48.788;9.214;2022-12-18T20:20:50;-1.90;99.90
40816;DHT22;26535;48.788;9.214;2022-12-18T20:23:15;-1.90;99.90
40816;DHT22;26535;48.788;9.214;2022-12-18T20:25:43;-1.90;99.90
40816;DHT22;26535;48.788;9.214;2022-12-18T20:28:12;-2.00;99.90
40816;DHT22;26535;48.788;9.214;2022-12-18T20:30:41;-2.00;99.90
40816;DHT22;26535;48.788;9.214;2022-12-18T20:33:06;-1.90;99.90
40816;DHT22;26535;48.788;9.214;2022-12-18T20:35:32;-1.80;99.90
40816;DHT22;26535;48.788;9.214;2022-12-18T20:38:01;-1.90;99.90
40816;DHT22;26535;48.788;9.214;2022-12-18T20:40:26;-1.80;99.90
40816;DHT22;26535;48.788;9.214;2022-12-18T20:42:55;-1.80;99.90
40816;DHT22;26535;48.788;9.214;2022-12-18T20:45:20;-1.80;99.90
40816;DHT22;26535;48.788;9.214;2022-12-18T20:47:49;-1.90;99.90
40816;DHT22;26535;48.788;9.214;2022-12-18T20:50:17;-1.90;99.90
40816;DHT22;26535;48.788;9.214;2022-12-18T20:52:43;-2.00;99.90
40816;DHT22;26535;48.788;9.214;2022-12-18T20:55:09;-2.00;99.90
40816;DHT22;26535;48.788;9.214;2022-12-18T20:57:34;-2.00;99.90
40816;DHT22;26535;48.788;9.214;2022-12-18T21:00:00;-1.90;99.90
40816;DHT22;26535;48.788;9.214;2022-12-18T21:02:26;-1.90;99.90
40816;DHT22;26535;48.788;9.214;2022-12-18T21:04:52;-1.90;99.90
40816;DHT22;26535;48.788;9.214;2022-12-18T21:07:18;-1.90;99.90
40816;DHT22;26535;48.788;9.214;2022-12-18T21:09:44;-1.80;99.90
40816;DHT22;26535;48.788;9.214;2022-12-18T21:12:12;-1.90;99.90
40816;DHT22;26535;48.788;9.214;2022-12-18T21:15:05;-1.90;99.90
40816;DHT22;26535;48.788;9.214;2022-12-18T21:17:31;-1.90;99.90
40816;DHT22;26535;48.788;9.214;2022-12-18T21:19:57;-1.90;99.90
40816;DHT22;26535;48.788;9.214;2022-12-18T21:22:23;-1.90;99.90
40816;DHT22;26535;48.788;9.214;2022-12-18T21:24:49;-1.90;99.90
40816;DHT22;26535;48.788;9.214;2022-12-18T21:27:15;-1.90;99.90
40816;DHT22;26535;48.788;9.214;2022-12-18T21:29:40;-2.00;99.90
40816;DHT22;26535;48.788;9.214;2022-12-18T21:32:08;-1.90;99.90
40816;DHT22;26535;48.788;9.214;2022-12-18T21:34:34;-2.00;99.90
40816;DHT22;26535;48.788;9.214;2022-12-18T21:37:01;-2.00;99.90
40816;DHT22;26535;48.788;9.214;2022-12-18T21:39:27;-2.10;99.90
40816;DHT22;26535;48.788;9.214;2022-12-18T21:41:54;-2.00;99.90
40816;DHT22;26535;48.788;9.214;2022-12-18T21:44:39;-2.00;99.90
40816;DHT22;26535;48.788;9.214;2022-12-18T21:47:05;-2.00;99.90
40816;DHT22;26535;48.788;9.214;2022-12-18T21:49:31;-2.00;99.90
40816;DHT22;26535;48.788;9.214;2022-12-18T21:51:58;-2.00;99.90
40816;DHT22;26535;48.788;9.214;2022-12-18T21:54:26;-1.90;99.90
40816;DHT22;26535;48.788;9.214;2022-12-18T21:59:23;-1.90;99.90
40816;DHT22;26535;48.788;9.214;2022-12-18T22:01:50;-1.80;99.90
40816;DHT22;26535;48.788;9.214;2022-12-18T22:04:17;-1.80;99.90
40816;DHT22;26535;48.788;9.214;2022-12-18T22:06:44;-1.80;99.90
40816;DHT22;26535;48.788;9.214;2022-12-18T22:09:13;-1.80;99.90
40816;DHT22;26535;48.788;9.214;2022-12-18T22:11:40;-1.80;99.90
40816;DHT22;26535;48.788;9.214;2022-12-18T22:14:06;-1.80;99.90
40816;DHT22;26535;48.788;9.214;2022-12-18T22:16:32;-1.80;99.90
40816;DHT22;26535;48.788;9.214;2022-12-18T22:18:58;-1.80;99.90
40816;DHT22;26535;48.788;9.214;2022-12-18T22:21:27;-1.80;99.90
40816;DHT22;26535;48.788;9.214;2022-12-18T22:23:58;-1.80;99.90
40816;DHT22;26535;48.788;9.214;2022-12-18T22:26:30;-1.80;99.90
40816;DHT22;26535;48.788;9.214;2022-12-18T22:28:56;-1.80;99.90
40816;DHT22;26535;48.788;9.214;2022-12-18T22:31:40;-1.70;99.90
40816;DHT22;26535;48.788;9.214;2022-12-18T22:34:07;-1.70;99.90
40816;DHT22;26535;48.788;9.214;2022-12-18T22:36:38;-1.70;99.90
40816;DHT22;26535;48.788;9.214;2022-12-18T22:39:17;-1.70;99.90
40816;DHT22;26535;48.788;9.214;2022-12-18T22:41:43;-1.60;99.90
40816;DHT22;26535;48.788;9.214;2022-12-18T22:44:09;-1.50;99.90
40816;DHT22;26535;48.788;9.214;2022-12-18T22:46:41;-1.50;99.90
40816;DHT22;26535;48.788;9.214;2022-12-18T22:49:16;-1.50;99.90
40816;DHT22;26535;48.788;9.214;2022-12-18T22:51:42;-1.50;99.90
40816;DHT22;26535;48.788;9.214;2022-12-18T22:54:08;-1.50;99.90
40816;DHT22;26535;48.788;9.214;2022-12-18T22:56:35;-1.50;99.90
40816;DHT22;26535;48.788;9.214;2022-12-18T22:59:01;-1.40;99.90
40816;DHT22;26535;48.788;9.214;2022-12-18T23:01:28;-1.50;99.90
40816;DHT22;26535;48.788;9.214;2022-12-18T23:03:54;-1.40;99.90
40816;DHT22;26535;48.788;9.214;2022-12-18T23:06:22;-1.40;99.90
40816;DHT22;26535;48.788;9.214;2022-12-18T23:08:48;-1.40;99.90
40816;DHT22;26535;48.788;9.214;2022-12-18T23:11:21;-1.40;99.90
40816;DHT22;26535;48.788;9.214;2022-12-18T23:13:47;-1.40;99.90
40816;DHT22;26535;48.788;9.214;2022-12-18T23:16:16;-1.40;99.90
40816;DHT22;26535;48.788;9.214;2022-12-18T23:18:43;-1.40;99.90
40816;DHT22;26535;48.788;9.214;2022-12-18T23:21:14;-1.40;99.90
40816;DHT22;26535;48.788;9.214;2022-12-18T23:23:47;-1.40;99.90
40816;DHT22;26535;48.788;9.214;2022-12-18T23:26:21;-1.40;99.90
40816;DHT22;26535;48.788;9.214;2022-12-18T23:28:48;-1.40;99.90
40816;DHT22;26535;48.788;9.214;2022-12-18T23:31:27;-1.40;99.90
40816;DHT22;26535;48.788;9.214;2022-12-18T23:33:56;-1.40;99.90
40816;DHT22;26535;48.788;9.214;2022-12-18T23:36:22;-1.30;99.90
40816;DHT22;26535;48.788;9.214;2022-12-18T23:38:53;-1.30;99.90
40816;DHT22;26535;48.788;9.214;2022-12-18T23:41:24;-1.20;99.90
40816;DHT22;26535;48.788;9.214;2022-12-18T23:43:50;-1.10;99.90
40816;DHT22;26535;48.788;9.214;2022-12-18T23:46:33;-1.10;99.90
40816;DHT22;26535;48.788;9.214;2022-12-18T23:49:05;-1.10;99.90
40816;DHT22;26535;48.788;9.214;2022-12-18T23:51:36;-1.00;99.90
40816;DHT22;26535;48.788;9.214;2022-12-18T23:54:02;-1.10;99.90
40816;DHT22;26535;48.788;9.214;2022-12-18T23:56:29;-1.10;99.90
40816;DHT22;26535;48.788;9.214;2022-12-18T23:58:55;-1.10;99.90
